createdAt,value
2022-10-04T00:03:12.492Z,6.40
2022-10-04T00:06:22.906Z,6.20
2022-10-04T00:09:37.647Z,6.10
2022-10-04T00:12:51.814Z,6.10
2022-10-04T00:16:00.402Z,6.10
2022-10-04T00:19:39.382Z,6.20
2022-10-04T00:23:28.725Z,6.20
2022-10-04T00:27:20.684Z,6.00
2022-10-04T00:30:38.831Z,6.10
2022-10-04T00:33:49.680Z,6.30
2022-10-04T00:36:58.726Z,6.40
2022-10-04T00:40:17.001Z,6.40
2022-10-04T00:43:30.919Z,6.50
2022-10-04T00:46:42.624Z,6.50
2022-10-04T00:49:56.131Z,6.40
2022-10-04T00:53:14.731Z,6.40
2022-10-04T00:56:28.586Z,6.50
2022-10-04T00:59:42.538Z,6.50
2022-10-04T01:02:57.011Z,6.40
2022-10-04T01:06:07.526Z,6.40
2022-10-04T01:09:18.394Z,6.40
2022-10-04T01:12:40.062Z,6.40
2022-10-04T01:15:56.770Z,6.40
2022-10-04T01:19:31.582Z,6.40
2022-10-04T01:22:48.975Z,6.40
2022-10-04T01:25:57.514Z,6.40
2022-10-04T01:29:10.678Z,6.50
2022-10-04T01:32:19.186Z,6.50
2022-10-04T01:35:28.946Z,6.50
2022-10-04T01:38:39.008Z,6.60
2022-10-04T01:41:54.194Z,6.60
2022-10-04T01:45:08.732Z,6.60
2022-10-04T01:48:22.671Z,6.60
2022-10-04T01:51:35.008Z,6.60
2022-10-04T01:54:47.006Z,6.60
2022-10-04T01:58:01.252Z,6.50
2022-10-04T02:01:23.611Z,6.50
2022-10-04T02:04:34.985Z,6.50
2022-10-04T02:07:44.452Z,6.50
2022-10-04T02:10:56.475Z,6.60
2022-10-04T02:14:07.358Z,6.60
2022-10-04T02:17:17.318Z,6.70
2022-10-04T02:20:28.722Z,6.60
2022-10-04T02:23:38.855Z,6.70
2022-10-04T02:26:52.679Z,6.70
2022-10-04T02:30:05.724Z,6.80
2022-10-04T02:33:13.209Z,6.70
2022-10-04T02:36:27.359Z,6.70
2022-10-04T02:39:40.690Z,6.80
2022-10-04T02:42:55.687Z,6.70
2022-10-04T02:46:09.614Z,6.70
2022-10-04T02:49:25.317Z,6.80
2022-10-04T02:52:39.839Z,6.90
2022-10-04T02:55:49.643Z,6.90
2022-10-04T02:59:02.886Z,6.80
2022-10-04T03:02:29.450Z,6.80
2022-10-04T03:05:39.909Z,6.90
2022-10-04T03:08:51.498Z,6.80
2022-10-04T03:12:00.295Z,6.80
2022-10-04T03:15:13.035Z,6.80
2022-10-04T03:18:22.339Z,6.80
2022-10-04T03:21:33.178Z,6.90
2022-10-04T03:24:47.090Z,7.00
2022-10-04T03:27:56.377Z,7.00
2022-10-04T03:31:06.586Z,7.00
2022-10-04T03:34:17.172Z,7.10
2022-10-04T03:37:26.922Z,7.00
2022-10-04T03:40:38.139Z,7.00
2022-10-04T03:43:49.542Z,7.00
2022-10-04T03:47:00.668Z,7.00
2022-10-04T03:50:20.893Z,7.10
2022-10-04T03:53:32.719Z,7.10
2022-10-04T03:56:41.262Z,7.00
2022-10-04T03:59:50.008Z,7.10
2022-10-04T04:03:02.026Z,7.20
2022-10-04T04:06:17.687Z,7.20
2022-10-04T04:09:38.826Z,7.20
2022-10-04T04:12:54.477Z,7.20
2022-10-04T04:16:03.977Z,7.20
2022-10-04T04:19:17.492Z,7.30
2022-10-04T04:22:31.582Z,7.30
2022-10-04T04:25:43.032Z,7.30
2022-10-04T04:28:54.346Z,7.20
2022-10-04T04:32:06.215Z,7.20
2022-10-04T04:35:25.620Z,7.20
2022-10-04T04:38:35.478Z,7.30
2022-10-04T04:41:50.226Z,7.30
2022-10-04T04:45:02.162Z,7.30
2022-10-04T04:48:16.202Z,7.30
2022-10-04T04:51:26.775Z,7.30
2022-10-04T04:54:35.297Z,7.20
2022-10-04T04:57:45.143Z,7.20
2022-10-04T05:00:58.331Z,7.30
2022-10-04T05:04:18.347Z,7.30
2022-10-04T05:07:29.555Z,7.40
2022-10-04T05:10:39.914Z,7.50
2022-10-04T05:13:52.763Z,7.50
2022-10-04T05:17:01.302Z,7.50
2022-10-04T05:20:13.653Z,7.60
2022-10-04T05:23:23.811Z,7.50
2022-10-04T05:26:33.200Z,7.60
2022-10-04T05:29:47.675Z,7.60
2022-10-04T05:33:02.252Z,7.60
2022-10-04T05:36:38.640Z,7.60
2022-10-04T05:39:59.267Z,7.60
2022-10-04T05:43:24.031Z,7.70
2022-10-04T05:46:34.740Z,7.70
2022-10-04T05:49:46.430Z,7.80
2022-10-04T05:53:11.239Z,7.80
2022-10-04T05:56:42.347Z,7.80
2022-10-04T06:00:09.703Z,7.90
2022-10-04T06:03:37.218Z,7.90
2022-10-04T06:06:51.618Z,7.90
2022-10-04T06:10:17.180Z,8.00
2022-10-04T06:14:01.130Z,8.10
2022-10-04T06:17:35.305Z,8.10
2022-10-04T06:21:15.954Z,8.20
2022-10-04T06:24:29.334Z,8.20
2022-10-04T06:27:42.910Z,8.40
2022-10-04T06:31:25.606Z,8.50
2022-10-04T06:34:53.755Z,8.70
2022-10-04T06:38:17.840Z,8.90
2022-10-04T06:41:57.159Z,9.10
2022-10-04T06:45:31.551Z,9.30
2022-10-04T06:49:05.698Z,9.40
2022-10-04T06:52:31.086Z,9.40
2022-10-04T06:55:57.008Z,9.50
2022-10-04T06:59:30.029Z,9.60
2022-10-04T07:02:44.883Z,9.60
2022-10-04T07:06:01.333Z,9.70
2022-10-04T07:09:20.829Z,9.70
2022-10-04T07:12:30.297Z,9.70
2022-10-04T07:15:47.555Z,9.80
2022-10-04T07:19:01.916Z,9.70
2022-10-04T07:22:17.889Z,9.70
2022-10-04T07:25:30.673Z,9.80
2022-10-04T07:29:01.819Z,9.90
2022-10-04T07:32:15.671Z,10.00
2022-10-04T07:35:35.483Z,10.10
2022-10-04T07:38:50.241Z,10.20
2022-10-04T07:42:02.731Z,10.30
2022-10-04T07:45:17.673Z,10.50
2022-10-04T07:48:27.258Z,10.50
2022-10-04T07:51:41.721Z,10.60
2022-10-04T07:55:02.319Z,10.70
2022-10-04T07:58:21.773Z,10.80
2022-10-04T08:01:35.386Z,10.90
2022-10-04T08:04:51.215Z,11.00
2022-10-04T08:08:19.143Z,11.10
2022-10-04T08:11:39.365Z,11.20
2022-10-04T08:14:57.353Z,11.30
2022-10-04T08:18:28.139Z,11.40
2022-10-04T08:21:47.898Z,11.50
2022-10-04T08:25:03.502Z,11.60
2022-10-04T08:28:43.309Z,11.70
2022-10-04T08:32:05.671Z,11.80
2022-10-04T08:35:29.530Z,11.90
2022-10-04T08:38:45.619Z,12.00
2022-10-04T08:42:20.534Z,12.20
2022-10-04T08:45:54.212Z,12.30
2022-10-04T08:49:38.444Z,12.40
2022-10-04T08:52:59.644Z,12.40
2022-10-04T08:56:15.012Z,12.50
2022-10-04T08:59:57.990Z,12.60
2022-10-04T09:04:01.830Z,12.70
2022-10-04T09:07:31.279Z,12.90
2022-10-04T09:10:50.786Z,13.00
2022-10-04T09:14:30.943Z,13.10
2022-10-04T09:17:51.074Z,13.30
2022-10-04T09:21:08.420Z,13.40
2022-10-04T09:24:46.195Z,13.50
2022-10-04T09:28:16.574Z,13.60
2022-10-04T09:31:53.189Z,13.70
2022-10-04T09:35:45.205Z,13.80
2022-10-04T09:39:36.833Z,13.80
2022-10-04T09:43:05.659Z,13.80
2022-10-04T09:46:38.771Z,13.90
2022-10-04T09:50:18.994Z,14.00
2022-10-04T09:53:55.855Z,14.20
2022-10-04T09:57:19.346Z,14.30
2022-10-04T10:00:33.947Z,14.30
2022-10-04T10:04:05.427Z,14.30
2022-10-04T10:07:40.271Z,14.30
2022-10-04T10:11:24.245Z,14.30
2022-10-04T10:15:06.238Z,14.20
2022-10-04T10:18:27.005Z,14.10
2022-10-04T10:21:56.472Z,14.10
2022-10-04T10:25:13.900Z,14.10
2022-10-04T10:28:46.122Z,14.10
2022-10-04T10:32:10.031Z,14.10
2022-10-04T10:35:30.847Z,14.10
2022-10-04T10:38:52.054Z,14.10
2022-10-04T10:42:19.901Z,14.20
2022-10-04T10:45:49.066Z,14.20
2022-10-04T10:49:22.447Z,14.30
2022-10-04T10:53:04.998Z,14.20
2022-10-04T10:56:46.916Z,14.30
2022-10-04T11:00:23.437Z,14.30
2022-10-04T11:03:54.173Z,14.40
2022-10-04T11:07:30.400Z,14.40
2022-10-04T11:11:19.876Z,14.40
2022-10-04T11:14:50.036Z,14.40
2022-10-04T11:18:20.748Z,14.50
2022-10-04T11:22:09.889Z,14.50
2022-10-04T11:25:42.606Z,14.50
2022-10-04T11:28:58.807Z,14.50
2022-10-04T11:32:40.798Z,14.60
2022-10-04T11:36:19.060Z,14.60
2022-10-04T11:39:49.198Z,14.70
2022-10-04T11:43:11.491Z,14.70
2022-10-04T11:46:36.180Z,14.80
2022-10-04T11:49:57.070Z,14.70
2022-10-04T11:53:35.119Z,14.60
2022-10-04T11:57:12.274Z,14.50
2022-10-04T12:00:22.547Z,14.50
2022-10-04T12:03:51.483Z,14.50
2022-10-04T12:07:31.086Z,14.50
2022-10-04T12:10:41.575Z,14.50
2022-10-04T12:14:03.668Z,14.60
2022-10-04T12:17:48.093Z,14.60
2022-10-04T12:21:29.007Z,14.70
2022-10-04T12:25:20.636Z,14.80
2022-10-04T12:29:02.627Z,14.80
2022-10-04T12:32:16.614Z,14.80
2022-10-04T12:35:35.586Z,14.80
2022-10-04T12:39:16.696Z,14.70
2022-10-04T12:42:36.299Z,14.60
2022-10-04T12:45:58.240Z,14.60
2022-10-04T12:49:20.421Z,14.70
2022-10-04T12:52:35.530Z,14.70
2022-10-04T12:56:01.829Z,14.80
2022-10-04T12:59:43.468Z,14.90
2022-10-04T13:03:20.558Z,14.90
2022-10-04T13:06:39.985Z,14.90
2022-10-04T13:10:25.499Z,14.90
2022-10-04T13:14:14.883Z,15.00
2022-10-04T13:17:36.109Z,15.10
2022-10-04T13:20:57.292Z,15.10
2022-10-04T13:24:12.078Z,15.10
2022-10-04T13:27:25.608Z,15.00
2022-10-04T13:30:47.227Z,15.10
2022-10-04T13:34:04.836Z,15.20
2022-10-04T13:37:33.507Z,15.20
2022-10-04T13:40:57.280Z,15.30
2022-10-04T13:44:39.154Z,15.30
2022-10-04T13:48:24.776Z,15.20
2022-10-04T13:51:45.697Z,15.20
2022-10-04T13:55:21.151Z,15.30
2022-10-04T13:58:36.852Z,15.30
2022-10-04T14:02:13.893Z,15.30
2022-10-04T14:06:06.233Z,15.30
2022-10-04T14:09:45.869Z,15.40
2022-10-04T14:13:30.092Z,15.40
2022-10-04T14:17:14.058Z,15.50
2022-10-04T14:21:05.221Z,15.40
2022-10-04T14:25:05.767Z,15.30
2022-10-04T14:28:59.299Z,15.20
2022-10-04T14:32:41.660Z,15.10
2022-10-04T14:35:56.413Z,15.10
2022-10-04T14:39:34.948Z,15.10
2022-10-04T14:43:03.584Z,15.20
2022-10-04T14:46:22.998Z,15.20
2022-10-04T14:49:57.917Z,15.20
2022-10-04T14:53:22.183Z,15.20
2022-10-04T14:56:50.095Z,15.10
2022-10-04T15:00:20.419Z,15.00
2022-10-04T15:03:40.830Z,15.00
2022-10-04T15:06:52.062Z,15.00
2022-10-04T15:10:12.128Z,15.00
2022-10-04T15:13:26.594Z,14.90
2022-10-04T15:16:45.066Z,14.90
2022-10-04T15:20:20.097Z,14.90
2022-10-04T15:23:37.919Z,14.80
2022-10-04T15:26:57.773Z,14.70
2022-10-04T15:30:20.372Z,14.70
2022-10-04T15:33:41.166Z,14.60
2022-10-04T15:37:08.227Z,14.50
2022-10-04T15:40:28.994Z,14.40
2022-10-04T15:43:44.384Z,14.40
2022-10-04T15:46:57.730Z,14.30
2022-10-04T15:50:23.752Z,14.30
2022-10-04T15:53:56.393Z,14.30
2022-10-04T15:57:19.536Z,14.30
2022-10-04T16:00:32.842Z,14.30
2022-10-04T16:03:49.467Z,14.30
2022-10-04T16:07:02.096Z,14.20
2022-10-04T16:10:24.334Z,14.30
2022-10-04T16:13:46.424Z,14.20
2022-10-04T16:17:32.888Z,14.20
2022-10-04T16:21:07.998Z,14.30
2022-10-04T16:24:41.363Z,14.30
2022-10-04T16:28:14.141Z,14.30
2022-10-04T16:31:44.558Z,14.30
2022-10-04T16:34:58.040Z,14.30
2022-10-04T16:38:23.278Z,14.30
2022-10-04T16:41:40.675Z,14.30
2022-10-04T16:44:56.060Z,14.20
2022-10-04T16:48:16.142Z,14.20
2022-10-04T16:51:56.274Z,14.20
2022-10-04T16:55:38.243Z,14.20
2022-10-04T16:58:57.275Z,14.20
2022-10-04T17:02:33.917Z,14.10
2022-10-04T17:06:13.063Z,14.20
2022-10-04T17:09:29.837Z,14.10
2022-10-04T17:12:47.847Z,14.20
2022-10-04T17:16:05.350Z,14.10
2022-10-04T17:19:31.829Z,14.20
2022-10-04T17:22:55.163Z,14.20
2022-10-04T17:26:14.609Z,14.20
2022-10-04T17:29:37.907Z,14.20
2022-10-04T17:33:14.163Z,14.30
2022-10-04T17:36:35.395Z,14.30
2022-10-04T17:39:49.271Z,14.30
2022-10-04T17:43:05.994Z,14.30
2022-10-04T17:46:21.876Z,14.20
2022-10-04T17:50:01.127Z,14.20
2022-10-04T17:53:38.238Z,14.30
2022-10-04T17:56:51.783Z,14.30
2022-10-04T18:00:09.580Z,14.30
2022-10-04T18:03:20.688Z,14.30
2022-10-04T18:06:34.527Z,14.30
2022-10-04T18:09:49.251Z,14.30
2022-10-04T18:13:02.247Z,14.30
2022-10-04T18:16:17.924Z,14.30
2022-10-04T18:19:38.719Z,14.30
2022-10-04T18:22:49.084Z,14.30
2022-10-04T18:26:03.998Z,14.30
2022-10-04T18:29:15.336Z,14.40
2022-10-04T18:32:35.352Z,14.40
2022-10-04T18:35:53.384Z,14.40
2022-10-04T18:39:19.843Z,14.40
2022-10-04T18:42:32.276Z,14.40
2022-10-04T18:45:40.787Z,14.40
2022-10-04T18:48:54.550Z,14.40
2022-10-04T18:52:21.071Z,14.40
2022-10-04T18:55:42.138Z,14.40
2022-10-04T18:59:29.028Z,14.40
2022-10-04T19:02:46.674Z,14.40
2022-10-04T19:06:03.183Z,14.40
2022-10-04T19:09:20.770Z,14.40
2022-10-04T19:12:41.548Z,14.40
2022-10-04T19:16:08.728Z,14.40
2022-10-04T19:19:47.998Z,14.30
2022-10-04T19:23:10.114Z,14.30
2022-10-04T19:26:32.108Z,14.30
2022-10-04T19:29:59.886Z,14.30
2022-10-04T19:33:20.688Z,14.30
2022-10-04T19:36:45.507Z,14.30
2022-10-04T19:40:02.163Z,14.30
2022-10-04T19:43:18.298Z,14.30
2022-10-04T19:46:45.325Z,14.30
2022-10-04T19:50:07.503Z,14.30
2022-10-04T19:53:23.686Z,14.30
2022-10-04T19:56:44.541Z,14.20
2022-10-04T20:00:00.367Z,14.20
2022-10-04T20:03:14.682Z,14.30
2022-10-04T20:06:30.207Z,14.20
2022-10-04T20:09:54.829Z,14.30
2022-10-04T20:13:24.183Z,14.30
2022-10-04T20:17:07.623Z,14.20
2022-10-04T20:20:38.806Z,14.20
2022-10-04T20:23:57.419Z,14.20
2022-10-04T20:27:09.248Z,14.20
2022-10-04T20:30:24.686Z,14.10
2022-10-04T20:33:53.679Z,14.10
2022-10-04T20:37:04.410Z,14.10
2022-10-04T20:40:45.680Z,14.10
2022-10-04T20:43:57.019Z,14.10
2022-10-04T20:47:17.321Z,14.10
2022-10-04T20:50:43.390Z,14.20
2022-10-04T20:53:53.532Z,14.20
2022-10-04T20:57:05.121Z,14.20
2022-10-04T21:00:22.437Z,14.20
2022-10-04T21:03:32.691Z,14.20
2022-10-04T21:06:53.161Z,14.20
2022-10-04T21:10:13.728Z,14.20
2022-10-04T21:13:43.106Z,14.10
2022-10-04T21:16:54.672Z,14.10
2022-10-04T21:20:07.555Z,14.10
2022-10-04T21:23:23.502Z,14.10
2022-10-04T21:26:35.012Z,14.10
2022-10-04T21:29:46.316Z,14.10
2022-10-04T21:32:54.725Z,14.10
2022-10-04T21:36:03.590Z,14.10
2022-10-04T21:39:12.000Z,14.10
2022-10-04T21:42:20.548Z,14.10
2022-10-04T21:45:30.426Z,14.10
2022-10-04T21:48:38.881Z,14.10
2022-10-04T21:51:47.379Z,14.10
2022-10-04T21:54:55.757Z,14.10
2022-10-04T21:58:04.194Z,14.10
2022-10-04T22:01:14.100Z,14.10
2022-10-04T22:04:22.616Z,14.10
2022-10-04T22:07:31.044Z,14.10
2022-10-04T22:10:40.086Z,14.10
2022-10-04T22:13:49.119Z,14.10
2022-10-04T22:16:59.077Z,14.10
2022-10-04T22:20:08.314Z,14.10
2022-10-04T22:23:20.880Z,14.10
2022-10-04T22:26:29.682Z,14.10
2022-10-04T22:29:39.406Z,14.10
2022-10-04T22:32:49.555Z,14.00
2022-10-04T22:35:59.111Z,14.00
2022-10-04T22:39:12.988Z,13.90
2022-10-04T22:42:25.550Z,13.90
2022-10-04T22:45:37.415Z,13.90
2022-10-04T22:48:49.813Z,14.00
2022-10-04T22:52:00.113Z,14.00
2022-10-04T22:55:17.541Z,14.00
2022-10-04T22:58:27.322Z,14.00
2022-10-04T23:01:35.830Z,14.00
2022-10-04T23:04:51.045Z,14.10
2022-10-04T23:07:59.950Z,14.10
2022-10-04T23:11:09.164Z,14.10
2022-10-04T23:14:17.653Z,14.10
2022-10-04T23:17:31.473Z,14.10
2022-10-04T23:20:41.434Z,14.10
2022-10-04T23:23:50.879Z,14.10
2022-10-04T23:26:59.481Z,14.20
2022-10-04T23:30:13.128Z,14.20
2022-10-04T23:33:23.855Z,14.20
2022-10-04T23:36:33.669Z,14.20
2022-10-04T23:39:42.117Z,14.10
2022-10-04T23:42:53.278Z,14.10
2022-10-04T23:46:01.881Z,14.10
2022-10-04T23:49:14.671Z,14.10
2022-10-04T23:52:32.447Z,14.10
2022-10-04T23:55:42.981Z,14.10
2022-10-04T23:58:52.455Z,14.10
